createdAt,value
2019-05-11T00:00:07.408Z,117.87
2019-05-11T00:02:56.281Z,108.63
2019-05-11T00:05:44.399Z,106.97
2019-05-11T00:08:32.735Z,121.37
2019-05-11T00:11:21.257Z,115.82
2019-05-11T00:14:09.427Z,104.70
2019-05-11T00:16:57.674Z,107.55
2019-05-11T00:19:45.959Z,105.32
2019-05-11T00:22:34.278Z,113.22
2019-05-11T00:25:22.740Z,113.25
2019-05-11T00:28:11.559Z,98.92
2019-05-11T00:30:59.703Z,93.40
2019-05-11T00:33:48.464Z,106.17
2019-05-11T00:36:36.945Z,98.75
2019-05-11T00:39:25.379Z,88.52
2019-05-11T00:42:13.566Z,84.50
2019-05-11T00:45:01.759Z,94.47
2019-05-11T00:47:50.266Z,98.00
2019-05-11T00:50:39.941Z,81.35
2019-05-11T00:53:28.534Z,87.62
2019-05-11T00:56:17.063Z,85.12
2019-05-11T00:59:19.832Z,226.58
2019-05-11T01:01:55.479Z,81.00
2019-05-11T01:04:43.906Z,78.02
2019-05-11T01:07:32.158Z,78.28
2019-05-11T01:10:25.687Z,567.35
2019-05-11T01:13:10.507Z,426.45
2019-05-11T01:15:59.084Z,460.85
2019-05-11T01:18:47.595Z,316.75
2019-05-11T01:21:35.833Z,224.40
2019-05-11T01:24:24.216Z,225.97
2019-05-11T01:27:12.487Z,252.28
2019-05-11T01:30:00.886Z,254.20
2019-05-11T01:32:51.019Z,268.77
2019-05-11T01:35:40.439Z,245.07
2019-05-11T01:38:28.834Z,243.40
2019-05-11T01:41:17.032Z,256.00
2019-05-11T01:44:05.419Z,219.03
2019-05-11T01:46:53.643Z,219.07
2019-05-11T01:49:41.844Z,229.87
2019-05-11T01:52:30.100Z,198.55
2019-05-11T01:55:18.543Z,178.50
2019-05-11T01:58:07.083Z,203.98
2019-05-11T02:00:55.378Z,405.57
2019-05-11T02:03:45.073Z,386.20
2019-05-11T02:06:34.677Z,348.07
2019-05-11T02:09:22.947Z,320.93
2019-05-11T02:12:11.063Z,310.65
2019-05-11T02:14:59.455Z,300.65
2019-05-11T02:17:47.895Z,434.13
2019-05-11T02:20:36.406Z,475.95
2019-05-11T02:23:24.911Z,421.63
2019-05-11T02:26:13.099Z,425.65
2019-05-11T02:29:01.328Z,483.38
2019-05-11T02:31:49.541Z,537.62
2019-05-11T02:34:37.979Z,515.45
2019-05-11T02:37:26.291Z,499.18
2019-05-11T02:40:14.512Z,479.15
2019-05-11T02:43:02.796Z,424.25
2019-05-11T02:45:50.869Z,406.70
2019-05-11T02:48:39.155Z,377.70
2019-05-11T02:51:28.970Z,367.75
2019-05-11T02:54:17.485Z,374.40
2019-05-11T02:57:06.015Z,338.02
2019-05-11T02:59:54.368Z,327.90
2019-05-11T03:02:42.935Z,353.02
2019-05-11T03:05:31.144Z,460.25
2019-05-11T03:08:22.481Z,481.73
2019-05-11T03:11:10.719Z,490.08
2019-05-11T03:14:00.073Z,431.50
2019-05-11T03:16:50.074Z,421.85
2019-05-11T03:19:38.324Z,393.25
2019-05-11T03:22:26.612Z,348.90
2019-05-11T03:25:14.781Z,461.73
2019-05-11T03:28:03.348Z,462.27
2019-05-11T03:30:51.832Z,433.45
2019-05-11T03:33:40.298Z,412.00
2019-05-11T03:36:28.561Z,396.93
2019-05-11T03:39:16.967Z,370.75
2019-05-11T03:42:14.822Z,356.75
2019-05-11T03:44:55.440Z,334.80
2019-05-11T03:47:43.679Z,400.87
2019-05-11T03:50:32.107Z,458.62
2019-05-11T03:53:20.410Z,409.57
2019-05-11T03:56:08.957Z,397.02
2019-05-11T03:58:57.302Z,388.73
2019-05-11T04:01:45.803Z,340.10
2019-05-11T04:04:34.315Z,335.93
2019-05-11T04:07:22.489Z,312.57
2019-05-11T04:10:12.110Z,323.87
2019-05-11T04:13:12.860Z,387.82
2019-05-11T04:16:01.145Z,382.85
2019-05-11T04:18:49.403Z,385.10
2019-05-11T04:21:38.363Z,355.52
2019-05-11T04:24:26.784Z,328.32
2019-05-11T04:27:19.337Z,305.37
2019-05-11T04:30:08.191Z,300.13
2019-05-11T04:32:57.995Z,286.12
2019-05-11T04:35:46.195Z,374.55
2019-05-11T04:38:34.889Z,422.43
2019-05-11T04:41:23.410Z,390.95
2019-05-11T04:44:12.008Z,386.85
2019-05-11T04:47:00.480Z,332.05
2019-05-11T04:49:48.699Z,305.87
2019-05-11T04:52:37.479Z,290.75
2019-05-11T04:55:30.734Z,343.80
2019-05-11T04:58:19.187Z,437.42
2019-05-11T05:01:27.534Z,390.57
2019-05-11T05:04:16.046Z,334.20
2019-05-11T05:07:05.370Z,344.07
2019-05-11T05:09:54.489Z,341.98
2019-05-11T05:12:50.503Z,498.82
2019-05-11T05:18:47.626Z,432.43
2019-05-11T05:21:35.972Z,381.55
2019-05-11T05:24:25.180Z,385.65
2019-05-11T05:27:13.434Z,309.92
2019-05-11T05:30:02.060Z,284.32
2019-05-11T05:32:51.863Z,283.95
2019-05-11T05:35:40.428Z,247.58
2019-05-11T05:38:28.762Z,248.57
2019-05-11T05:41:17.382Z,653.70
2019-05-11T05:44:05.863Z,487.65
2019-05-11T05:46:54.457Z,472.75
2019-05-11T05:49:42.992Z,367.37
2019-05-11T05:52:31.372Z,352.43
2019-05-11T05:55:19.899Z,335.65
2019-05-11T05:58:07.993Z,322.10
2019-05-11T06:00:56.387Z,323.75
2019-05-11T06:04:04.282Z,301.70
2019-05-11T06:06:52.848Z,292.85
2019-05-11T06:09:41.167Z,309.50
2019-05-11T06:12:29.599Z,280.62
2019-05-11T06:15:17.875Z,275.55
2019-05-11T06:18:09.426Z,257.40
2019-05-11T06:20:58.223Z,262.40
2019-05-11T06:23:46.956Z,238.68
2019-05-11T06:26:36.522Z,247.17
2019-05-11T06:29:24.966Z,238.47
2019-05-11T06:32:13.391Z,224.75
2019-05-11T06:35:01.906Z,255.10
2019-05-11T06:37:50.322Z,207.92
2019-05-11T06:40:38.851Z,205.70
2019-05-11T06:43:27.371Z,213.62
2019-05-11T06:46:15.883Z,185.55
2019-05-11T06:49:04.352Z,188.75
2019-05-11T06:51:52.753Z,190.10
2019-05-11T06:54:40.951Z,187.75
2019-05-11T06:57:29.234Z,180.78
2019-05-11T07:00:17.474Z,185.22
2019-05-11T07:03:06.146Z,165.25
2019-05-11T07:06:06.790Z,148.22
2019-05-11T07:08:54.886Z,113.75
2019-05-11T07:11:43.395Z,112.12
2019-05-11T07:14:32.014Z,94.72
2019-05-11T07:17:20.383Z,78.55
2019-05-11T07:20:09.178Z,77.97
2019-05-11T07:22:57.356Z,64.47
2019-05-11T07:25:45.982Z,62.45
2019-05-11T07:28:34.195Z,62.23
2019-05-11T07:31:22.521Z,60.45
2019-05-11T07:34:10.878Z,58.35
2019-05-11T07:36:59.135Z,57.08
2019-05-11T07:39:48.753Z,57.78
2019-05-11T07:42:38.107Z,53.87
2019-05-11T07:45:28.351Z,53.52
2019-05-11T07:48:18.552Z,52.75
2019-05-11T07:51:08.737Z,52.80
2019-05-11T07:53:57.833Z,53.02
2019-05-11T07:56:47.940Z,51.53
2019-05-11T07:59:38.100Z,50.85
2019-05-11T08:02:28.554Z,50.80
2019-05-11T08:05:17.962Z,51.02
2019-05-11T08:08:08.550Z,49.05
2019-05-11T08:10:55.834Z,48.08
2019-05-11T08:13:44.319Z,49.25
2019-05-11T08:16:32.859Z,49.90
2019-05-11T08:19:21.423Z,48.63
2019-05-11T08:22:09.582Z,48.45
2019-05-11T08:24:58.695Z,47.83
2019-05-11T08:27:48.557Z,50.33
2019-05-11T08:30:38.133Z,48.80
2019-05-11T08:33:28.387Z,47.83
2019-05-11T08:36:18.425Z,49.45
2019-05-11T08:39:08.212Z,51.45
2019-05-11T08:41:58.789Z,49.88
2019-05-11T08:44:48.326Z,50.25
2019-05-11T08:47:37.784Z,50.48
2019-05-11T08:50:27.903Z,50.55
2019-05-11T08:53:17.883Z,46.50
2019-05-11T08:56:09.262Z,46.63
2019-05-11T08:58:58.825Z,44.90
2019-05-11T09:01:48.444Z,45.35
2019-05-11T09:04:41.570Z,43.83
2019-05-11T09:07:48.230Z,46.05
2019-05-11T09:10:37.612Z,44.45
2019-05-11T09:13:27.895Z,43.52
2019-05-11T09:16:15.955Z,41.95
2019-05-11T09:19:05.673Z,45.33
2019-05-11T09:21:54.363Z,43.70
2019-05-11T09:24:42.866Z,44.70
2019-05-11T09:27:31.002Z,45.58
2019-05-11T09:30:19.650Z,46.45
2019-05-11T09:33:08.630Z,45.40
2019-05-11T09:35:58.380Z,49.77
2019-05-11T09:38:48.935Z,47.20
2019-05-11T09:41:38.256Z,46.02
2019-05-11T09:44:28.847Z,46.88
2019-05-11T09:47:18.931Z,45.17
2019-05-11T09:50:08.603Z,44.08
2019-05-11T09:52:58.127Z,44.45
2019-05-11T09:56:08.194Z,43.83
2019-05-11T09:58:58.200Z,44.25
2019-05-11T10:01:48.293Z,171.05
2019-05-11T10:04:38.004Z,44.63
2019-05-11T10:07:28.559Z,43.65
2019-05-11T10:10:18.428Z,43.45
2019-05-11T10:13:08.053Z,46.37
2019-05-11T10:16:04.607Z,46.80
2019-05-11T10:18:48.904Z,49.15
2019-05-11T10:21:38.281Z,53.28
2019-05-11T10:24:28.131Z,53.08
2019-05-11T10:27:15.711Z,53.35
2019-05-11T10:30:08.117Z,72.35
2019-05-11T10:32:57.798Z,55.43
2019-05-11T10:35:48.177Z,53.13
2019-05-11T10:38:37.946Z,54.27
2019-05-11T10:41:28.264Z,53.20
2019-05-11T10:44:16.023Z,53.02
2019-05-11T10:47:04.294Z,51.68
2019-05-11T10:49:52.575Z,53.15
2019-05-11T10:52:41.099Z,52.05
2019-05-11T10:55:29.622Z,51.63
2019-05-11T10:58:18.572Z,53.17
2019-05-11T11:01:08.881Z,52.62
2019-05-11T11:03:58.740Z,54.35
2019-05-11T11:06:48.546Z,51.80
2019-05-11T11:09:38.608Z,52.53
2019-05-11T11:12:27.948Z,54.73
2019-05-11T11:15:18.320Z,62.62
2019-05-11T11:18:08.410Z,54.50
2019-05-11T11:20:58.066Z,57.13
2019-05-11T11:23:48.008Z,54.33
2019-05-11T11:26:38.071Z,52.67
2019-05-11T11:29:28.837Z,54.45
2019-05-11T11:32:18.407Z,51.50
2019-05-11T11:35:08.437Z,51.42
2019-05-11T11:37:58.429Z,50.92
2019-05-11T11:40:48.148Z,51.50
2019-05-11T11:43:37.766Z,51.33
2019-05-11T11:46:27.795Z,51.37
2019-05-11T11:49:18.192Z,50.50
2019-05-11T11:52:08.273Z,51.63
2019-05-11T11:54:58.475Z,50.58
2019-05-11T11:57:48.544Z,49.80
2019-05-11T12:00:38.871Z,49.75
2019-05-11T12:03:27.737Z,48.83
2019-05-11T12:06:18.173Z,49.20
2019-05-11T12:09:08.778Z,50.25
2019-05-11T12:11:58.048Z,49.88
2019-05-11T12:14:48.006Z,51.08
2019-05-11T12:17:38.021Z,49.98
2019-05-11T12:20:28.491Z,49.05
2019-05-11T12:23:17.982Z,50.20
2019-05-11T12:26:08.500Z,48.90
2019-05-11T12:28:57.707Z,48.83
2019-05-11T12:31:48.425Z,50.73
2019-05-11T12:34:37.506Z,48.20
2019-05-11T12:37:28.174Z,49.67
2019-05-11T12:40:17.972Z,49.15
2019-05-11T12:43:08.177Z,50.65
2019-05-11T12:45:58.729Z,49.05
2019-05-11T12:48:48.545Z,49.23
2019-05-11T12:51:38.279Z,49.40
2019-05-11T12:54:28.008Z,52.70
2019-05-11T12:57:18.701Z,49.63
2019-05-11T13:00:08.645Z,48.70
2019-05-11T13:02:58.703Z,51.85
2019-05-11T13:05:48.475Z,48.30
2019-05-11T13:08:38.832Z,49.60
2019-05-11T13:11:28.600Z,51.00
2019-05-11T13:14:18.457Z,49.55
2019-05-11T13:17:07.809Z,50.83
2019-05-11T13:19:58.622Z,50.10
2019-05-11T13:22:48.644Z,49.77
2019-05-11T13:25:38.608Z,49.38
2019-05-11T13:28:28.224Z,48.98
2019-05-11T13:31:18.392Z,48.60
2019-05-11T13:34:08.416Z,47.53
2019-05-11T13:36:57.500Z,48.30
2019-05-11T13:39:48.395Z,84.95
2019-05-11T13:42:38.324Z,49.25
2019-05-11T13:45:28.050Z,49.35
2019-05-11T13:48:17.745Z,57.25
2019-05-11T13:51:05.639Z,49.15
2019-05-11T13:53:54.153Z,51.08
2019-05-11T13:56:42.166Z,53.38
2019-05-11T13:59:30.363Z,52.20
2019-05-11T14:02:18.958Z,50.73
2019-05-11T14:05:28.579Z,49.42
2019-05-11T14:08:18.612Z,50.25
2019-05-11T14:11:08.638Z,49.40
2019-05-11T14:13:58.509Z,51.02
2019-05-11T14:16:48.506Z,50.98
2019-05-11T14:19:38.574Z,51.02
2019-05-11T14:22:28.196Z,50.98
2019-05-11T14:25:18.552Z,51.08
2019-05-11T14:28:08.862Z,52.00
2019-05-11T14:31:09.319Z,54.13
2019-05-11T14:33:57.989Z,68.80
2019-05-11T14:36:48.680Z,56.02
2019-05-11T14:39:38.343Z,65.17
2019-05-11T14:42:28.681Z,55.15
2019-05-11T14:45:18.934Z,61.50
2019-05-11T14:48:22.982Z,57.23
2019-05-11T14:50:59.348Z,50.17
2019-05-11T14:53:48.356Z,49.40
2019-05-11T14:56:38.069Z,50.45
2019-05-11T14:59:28.558Z,49.80
2019-05-11T15:02:34.412Z,50.03
2019-05-11T15:05:23.051Z,50.43
2019-05-11T15:08:11.671Z,52.67
2019-05-11T15:11:00.181Z,53.40
2019-05-11T15:13:49.018Z,52.58
2019-05-11T15:16:38.438Z,58.52
2019-05-11T15:19:27.889Z,56.40
2019-05-11T15:22:18.176Z,56.58
2019-05-11T15:25:08.058Z,60.28
2019-05-11T15:27:58.410Z,58.25
2019-05-11T15:30:48.377Z,67.45
2019-05-11T15:33:38.263Z,55.20
2019-05-11T15:36:28.533Z,58.83
2019-05-11T15:39:18.454Z,64.85
2019-05-11T15:42:11.702Z,57.53
2019-05-11T15:44:58.597Z,60.83
2019-05-11T15:47:48.724Z,55.83
2019-05-11T15:50:39.775Z,57.58
2019-05-11T15:53:26.743Z,54.93
2019-05-11T15:56:15.262Z,63.40
2019-05-11T15:59:03.602Z,56.75
2019-05-11T16:01:54.578Z,57.45
2019-05-11T16:04:41.934Z,55.78
2019-05-11T16:07:29.902Z,59.13
2019-05-11T16:10:18.702Z,92.37
2019-05-11T16:13:09.275Z,55.50
2019-05-11T16:15:58.030Z,59.90
2019-05-11T16:18:48.386Z,56.18
2019-05-11T16:21:38.168Z,66.47
2019-05-11T16:24:26.084Z,59.10
2019-05-11T16:27:14.426Z,65.65
2019-05-11T16:30:03.314Z,58.95
2019-05-11T16:32:51.730Z,59.75
2019-05-11T16:35:40.354Z,70.00
2019-05-11T16:38:29.103Z,58.73
2019-05-11T16:41:17.868Z,58.45
2019-05-11T16:44:08.007Z,56.55
2019-05-11T16:46:58.642Z,64.37
2019-05-11T16:49:47.420Z,76.22
2019-05-11T16:52:38.471Z,57.30
2019-05-11T16:55:25.834Z,74.20
2019-05-11T16:58:14.083Z,128.18
2019-05-11T17:01:02.334Z,71.17
2019-05-11T17:03:50.708Z,72.17
2019-05-11T17:06:40.385Z,62.45
2019-05-11T17:09:28.839Z,64.58
2019-05-11T17:12:17.988Z,72.25
2019-05-11T17:15:10.771Z,68.10
2019-05-11T17:17:59.538Z,63.77
2019-05-11T17:20:47.839Z,83.37
2019-05-11T17:23:38.342Z,79.67
2019-05-11T17:26:27.908Z,98.35
2019-05-11T17:29:18.585Z,92.82
2019-05-11T17:32:08.561Z,126.12
2019-05-11T17:34:58.142Z,96.37
2019-05-11T17:37:48.614Z,116.57
2019-05-11T17:40:38.237Z,83.50
2019-05-11T17:43:29.222Z,98.25
2019-05-11T17:46:18.764Z,87.37
2019-05-11T17:49:07.858Z,116.15
2019-05-11T17:51:56.401Z,99.37
2019-05-11T17:54:47.288Z,110.22
2019-05-11T17:57:35.054Z,104.27
2019-05-11T18:00:23.620Z,137.68
2019-05-11T18:03:12.158Z,85.00
2019-05-11T18:06:00.431Z,80.62
2019-05-11T18:08:49.039Z,86.57
2019-05-11T18:11:37.984Z,84.10
2019-05-11T18:14:28.132Z,119.57
2019-05-11T23:04:38.529Z,122.70
2019-05-11T23:07:28.782Z,117.50
2019-05-11T23:10:18.297Z,50.78
2019-05-11T23:13:11.370Z,51.88
2019-05-11T23:15:59.628Z,51.55
2019-05-11T23:18:48.420Z,55.30
2019-05-11T23:21:38.807Z,96.40
2019-05-11T23:24:28.754Z,53.15
2019-05-11T23:27:18.103Z,50.52
2019-05-11T23:30:08.705Z,52.95
2019-05-11T23:32:58.702Z,52.27
2019-05-11T23:35:48.528Z,50.15
2019-05-11T23:38:38.679Z,51.23
2019-05-11T23:41:28.747Z,50.52
2019-05-11T23:44:17.952Z,50.28
2019-05-11T23:47:06.562Z,53.50
2019-05-11T23:49:54.835Z,49.77
2019-05-11T23:52:43.010Z,52.30
2019-05-11T23:55:31.697Z,50.35
2019-05-11T23:58:19.804Z,52.35
